^^
Meteo Knjazevac Station Historical Data
Daily Summary for November 21, 2021 Units:  Both    English   Metric
Daily Weekly Monthly Yearly Custom
  High: Low: Average:
Temperature: 64.2 °F /  17.9 °C 38.1 °F /  3.4 °C 49.5 °F /  9.7 °C
Dew Point: 48.7 °F /  9.3 °C 36.4 °F /  2.4 °C 42.4 °F /  5.8 °C
Humidity: 96% 54% 78%
Wind Speed: 7mph /  11.3km/h - 2.1mph /  3.4km/h
Wind Gust: 12mph /  19.3km/h - -
Wind- - SW
Pressure: 30.19 in /  1022.2 hPa 29.97 in /  1014.8 hPa -
Precipitation: 0.00 in /  0 mm    
Historical Graphs
 
 
Tabular Data for November 21, 2021
Time Temperature Dew Point Pressure Wind Wind Speed Wind Gust Humidity Rainfall Rate (Hourly) solar Conditions
00:00 40.3 °F /  4.6 °C 39 °F /  3.9 °C 30.19in /  1022.2hPa Calm   3mph /  4.8km/h 95% 0.00in /  0mm 0 W/m2
00:10 40.5 °F /  4.7 °C 39.1 °F /  3.9 °C 30.19in /  1022.2hPa North 1mph /  1.6km/h 2mph /  3.2km/h 95% 0.00in /  0mm 0 W/m2
00:20 40.7 °F /  4.8 °C 39.4 °F /  4.1 °C 30.19in /  1022.2hPa Calm   2mph /  3.2km/h 95% 0.00in /  0mm 0 W/m2
00:30 40.9 °F /  4.9 °C 39.5 °F /  4.2 °C 30.19in /  1022.2hPa Calm   2mph /  3.2km/h 95% 0.00in /  0mm 0 W/m2
00:40 41.4 °F /  5.2 °C 40 °F /  4.4 °C 30.19in /  1022.2hPa Calm   3mph /  4.8km/h 95% 0.00in /  0mm 0 W/m2
00:50 41.5 °F /  5.3 °C 40.2 °F /  4.6 °C 30.19in /  1022.2hPa ESE 1mph /  1.6km/h 3mph /  4.8km/h 95% 0.00in /  0mm 0 W/m2
01:00 41.8 °F /  5.4 °C 40.4 °F /  4.7 °C 30.19in /  1022.2hPa ENE 1mph /  1.6km/h 2mph /  3.2km/h 95% 0.00in /  0mm 0 W/m2
01:10 42.1 °F /  5.6 °C 40.8 °F /  4.9 °C 30.18in /  1021.9hPa SE 2mph /  3.2km/h 3mph /  4.8km/h 95% 0.00in /  0mm 0 W/m2
01:20 42.4 °F /  5.8 °C 41.1 °F /  5.1 °C 30.18in /  1021.9hPa Calm   3mph /  4.8km/h 95% 0.00in /  0mm 0 W/m2
01:30 42.6 °F /  5.9 °C 41.3 °F /  5.2 °C 30.18in /  1021.9hPa Calm   2mph /  3.2km/h 95% 0.00in /  0mm 0 W/m2
01:40 42.8 °F /  6 °C 41.5 °F /  5.3 °C 30.18in /  1021.9hPa Calm   2mph /  3.2km/h 95% 0.00in /  0mm 0 W/m2
01:50 43 °F /  6.1 °C 41.4 °F /  5.2 °C 30.18in /  1021.9hPa Calm   2mph /  3.2km/h 94% 0.00in /  0mm 0 W/m2
02:00 42.8 °F /  6 °C 41.2 °F /  5.1 °C 30.17in /  1021.6hPa West 1mph /  1.6km/h 3mph /  4.8km/h 94% 0.00in /  0mm 0 W/m2
02:10 42.8 °F /  6 °C 40.9 °F /  4.9 °C 30.17in /  1021.6hPa Calm   2mph /  3.2km/h 93% 0.00in /  0mm 0 W/m2
02:20 42.9 °F /  6.1 °C 41.2 °F /  5.1 °C 30.17in /  1021.6hPa Calm   1mph /  1.6km/h 94% 0.00in /  0mm 0 W/m2
02:30 43 °F /  6.1 °C 41.1 °F /  5.1 °C 30.16in /  1021.2hPa Calm   2mph /  3.2km/h 93% 0.00in /  0mm 0 W/m2
02:40 43 °F /  6.1 °C 41.1 °F /  5.1 °C 30.17in /  1021.6hPa Calm   3mph /  4.8km/h 93% 0.00in /  0mm 0 W/m2
02:50 42.8 °F /  6 °C 40.6 °F /  4.8 °C 30.16in /  1021.2hPa Calm   2mph /  3.2km/h 92% 0.00in /  0mm 0 W/m2
03:00 42.6 °F /  5.9 °C 40.7 °F /  4.8 °C 30.16in /  1021.2hPa NW 1mph /  1.6km/h 2mph /  3.2km/h 93% 0.00in /  0mm 0 W/m2
03:10 42.4 °F /  5.8 °C 40.6 °F /  4.8 °C 30.16in /  1021.2hPa Calm   2mph /  3.2km/h 93% 0.00in /  0mm 0 W/m2
03:20 42.4 °F /  5.8 °C 40.6 °F /  4.8 °C 30.16in /  1021.2hPa Calm   1mph /  1.6km/h 93% 0.00in /  0mm 0 W/m2
03:30 42.6 °F /  5.9 °C 41 °F /  5 °C 30.16in /  1021.2hPa Calm   2mph /  3.2km/h 94% 0.00in /  0mm 0 W/m2
03:40 42.8 °F /  6 °C 41.2 °F /  5.1 °C 30.15in /  1020.9hPa NNE 1mph /  1.6km/h 2mph /  3.2km/h 94% 0.00in /  0mm 0 W/m2
03:50 42.8 °F /  6 °C 41.2 °F /  5.1 °C 30.15in /  1020.9hPa Calm   2mph /  3.2km/h 94% 0.00in /  0mm 0 W/m2
04:00 42.8 °F /  6 °C 41.2 °F /  5.1 °C 30.15in /  1020.9hPa Calm     94% 0.00in /  0mm 0 W/m2
04:10 43 °F /  6.1 °C 41.4 °F /  5.2 °C 30.15in /  1020.9hPa Calm   2mph /  3.2km/h 94% 0.00in /  0mm 0 W/m2
04:20 43.2 °F /  6.2 °C 41.6 °F /  5.3 °C 30.15in /  1020.9hPa Calm   1mph /  1.6km/h 94% 0.00in /  0mm 0 W/m2
04:30 43.2 °F /  6.2 °C 41.6 °F /  5.3 °C 30.15in /  1020.9hPa Calm   1mph /  1.6km/h 94% 0.00in /  0mm 0 W/m2
04:40 43.2 °F /  6.2 °C 41.3 °F /  5.2 °C 30.15in /  1020.9hPa Calm   2mph /  3.2km/h 93% 0.00in /  0mm 0 W/m2
04:50 43.2 °F /  6.2 °C 41.6 °F /  5.3 °C 30.14in /  1020.5hPa Calm   2mph /  3.2km/h 94% 0.00in /  0mm 0 W/m2
05:00 43.2 °F /  6.2 °C 41.3 °F /  5.2 °C 30.14in /  1020.5hPa Calm   2mph /  3.2km/h 93% 0.00in /  0mm 0 W/m2
05:10 42.8 °F /  6 °C 40.9 °F /  4.9 °C 30.14in /  1020.5hPa Calm   2mph /  3.2km/h 93% 0.00in /  0mm 0 W/m2
05:20 42.4 °F /  5.8 °C 40.6 °F /  4.8 °C 30.14in /  1020.5hPa WNW 2mph /  3.2km/h 2mph /  3.2km/h 93% 0.00in /  0mm 0 W/m2
05:30 41.8 °F /  5.4 °C 40 °F /  4.4 °C 30.13in /  1020.2hPa West 3mph /  4.8km/h 3mph /  4.8km/h 93% 0.00in /  0mm 0 W/m2
05:40 41.4 °F /  5.2 °C 39.8 °F /  4.3 °C 30.13in /  1020.2hPa West 2mph /  3.2km/h 3mph /  4.8km/h 94% 0.00in /  0mm 0 W/m2
05:50 41 °F /  5 °C 39.4 °F /  4.1 °C 30.13in /  1020.2hPa WNW 2mph /  3.2km/h 5mph /  8km/h 94% 0.00in /  0mm 0 W/m2
06:00 40.8 °F /  4.9 °C 39.2 °F /  4 °C 30.13in /  1020.2hPa West 3mph /  4.8km/h 5mph /  8km/h 94% 0.00in /  0mm 0 W/m2
06:10 40.5 °F /  4.7 °C 39.1 °F /  3.9 °C 30.13in /  1020.2hPa West 5mph /  8km/h 6mph /  9.7km/h 95% 0.00in /  0mm 0 W/m2
06:20 40.3 °F /  4.6 °C 39 °F /  3.9 °C 30.13in /  1020.2hPa West 3mph /  4.8km/h 7mph /  11.3km/h 95% 0.00in /  0mm 0 W/m2
06:30 39.9 °F /  4.4 °C 38.6 °F /  3.7 °C 30.13in /  1020.2hPa West 3mph /  4.8km/h 6mph /  9.7km/h 95% 0.00in /  0mm 0 W/m2
06:40 39.2 °F /  4 °C 37.6 °F /  3.1 °C 30.13in /  1020.2hPa West 2mph /  3.2km/h 5mph /  8km/h 94% 0.00in /  0mm 8 W/m2
06:50 38.5 °F /  3.6 °C 36.6 °F /  2.6 °C 30.13in /  1020.2hPa West 3mph /  4.8km/h 5mph /  8km/h 93% 0.00in /  0mm 11 W/m2
07:00 38.1 °F /  3.4 °C 36.5 °F /  2.5 °C 30.13in /  1020.2hPa West 3mph /  4.8km/h 5mph /  8km/h 94% 0.00in /  0mm 27 W/m2
07:10 38.3 °F /  3.5 °C 37.3 °F /  2.9 °C 30.13in /  1020.2hPa West 3mph /  4.8km/h 5mph /  8km/h 96% 0.00in /  0mm 43 W/m2
07:20 38.3 °F /  3.5 °C 37.3 °F /  2.9 °C 30.13in /  1020.2hPa West 3mph /  4.8km/h 5mph /  8km/h 96% 0.00in /  0mm 61 W/m2
07:30 38.5 °F /  3.6 °C 37.4 °F /  3 °C 30.13in /  1020.2hPa West 2mph /  3.2km/h 5mph /  8km/h 96% 0.00in /  0mm 81 W/m2
07:40 39.2 °F /  4 °C 38.2 °F /  3.4 °C 30.13in /  1020.2hPa WNW 2mph /  3.2km/h 4mph /  6.4km/h 96% 0.00in /  0mm 102 W/m2
07:50 40.1 °F /  4.5 °C 39.1 °F /  3.9 °C 30.12in /  1019.9hPa West 2mph /  3.2km/h 3mph /  4.8km/h 96% 0.00in /  0mm 124 W/m2
08:00 40.9 °F /  4.9 °C 39.6 °F /  4.2 °C 30.12in /  1019.9hPa Calm   2mph /  3.2km/h 95% 0.00in /  0mm 144 W/m2
08:10 41.9 °F /  5.5 °C 40.6 °F /  4.8 °C 30.12in /  1019.9hPa WNW 1mph /  1.6km/h 2mph /  3.2km/h 95% 0.00in /  0mm 167 W/m2
08:20 43.2 °F /  6.2 °C 41.6 °F /  5.3 °C 30.11in /  1019.5hPa West 1mph /  1.6km/h 2mph /  3.2km/h 94% 0.00in /  0mm 188 W/m2
08:30 44.5 °F /  6.9 °C 42.6 °F /  5.9 °C 30.11in /  1019.5hPa WSW 1mph /  1.6km/h 4mph /  6.4km/h 93% 0.00in /  0mm 208 W/m2
08:40 45.6 °F /  7.6 °C 43.1 °F /  6.2 °C 30.10in /  1019.2hPa SW 1mph /  1.6km/h 2mph /  3.2km/h 91% 0.00in /  0mm 228 W/m2
08:50 47 °F /  8.3 °C 44.2 °F /  6.8 °C 30.10in /  1019.2hPa WSW 1mph /  1.6km/h 3mph /  4.8km/h 90% 0.00in /  0mm 246 W/m2
09:00 48.4 °F /  9.1 °C 44.4 °F /  6.9 °C 30.10in /  1019.2hPa WNW 2mph /  3.2km/h 4mph /  6.4km/h 86% 0.00in /  0mm 264 W/m2
09:10 49.3 °F /  9.6 °C 44.7 °F /  7.1 °C 30.10in /  1019.2hPa West 2mph /  3.2km/h 4mph /  6.4km/h 84% 0.00in /  0mm 281 W/m2
09:20 50.4 °F /  10.2 °C 45.4 °F /  7.4 °C 30.10in /  1019.2hPa SW 1mph /  1.6km/h 4mph /  6.4km/h 83% 0.00in /  0mm 297 W/m2
09:30 51.3 °F /  10.7 °C 45.6 °F /  7.6 °C 30.09in /  1018.8hPa West 1mph /  1.6km/h 3mph /  4.8km/h 81% 0.00in /  0mm 312 W/m2
09:40 52.2 °F /  11.2 °C 45.8 °F /  7.7 °C 30.09in /  1018.8hPa NW 2mph /  3.2km/h 6mph /  9.7km/h 79% 0.00in /  0mm 326 W/m2
09:50 52.9 °F /  11.6 °C 46.2 °F /  7.9 °C 30.09in /  1018.8hPa West 2mph /  3.2km/h 5mph /  8km/h 78% 0.00in /  0mm 339 W/m2
10:00 53.7 °F /  12.1 °C 46.6 °F /  8.1 °C 30.08in /  1018.5hPa West 1mph /  1.6km/h 4mph /  6.4km/h 77% 0.00in /  0mm 350 W/m2
10:10 54.7 °F /  12.6 °C 47.3 °F /  8.5 °C 30.08in /  1018.5hPa South 2mph /  3.2km/h 5mph /  8km/h 76% 0.00in /  0mm 360 W/m2
10:20 55.4 °F /  13 °C 47.2 °F /  8.4 °C 30.08in /  1018.5hPa SW 3mph /  4.8km/h 7mph /  11.3km/h 74% 0.00in /  0mm 369 W/m2
10:30 56.1 °F /  13.4 °C 47.6 °F /  8.7 °C 30.07in /  1018.2hPa SW 3mph /  4.8km/h 7mph /  11.3km/h 73% 0.00in /  0mm 376 W/m2
10:40 56.7 °F /  13.7 °C 47.8 °F /  8.8 °C 30.06in /  1017.8hPa SW 5mph /  8km/h 6mph /  9.7km/h 72% 0.00in /  0mm 382 W/m2
10:50 57.6 °F /  14.2 °C 47.9 °F /  8.8 °C 30.06in /  1017.8hPa SW 3mph /  4.8km/h 7mph /  11.3km/h 70% 0.00in /  0mm 386 W/m2
11:00 58.5 °F /  14.7 °C 48.4 °F /  9.1 °C 30.05in /  1017.5hPa SW 2mph /  3.2km/h 6mph /  9.7km/h 69% 0.00in /  0mm 389 W/m2
11:10 59.4 °F /  15.2 °C 48.1 °F /  8.9 °C 30.05in /  1017.5hPa SW 5mph /  8km/h 8mph /  12.9km/h 66% 0.00in /  0mm 390 W/m2
11:20 60 °F /  15.6 °C 48.2 °F /  9 °C 30.04in /  1017.2hPa WSW 5mph /  8km/h 9mph /  14.5km/h 65% 0.00in /  0mm 390 W/m2
11:30 60.4 °F /  15.8 °C 48.2 °F /  9 °C 30.04in /  1017.2hPa WSW 6mph /  9.7km/h 8mph /  12.9km/h 64% 0.00in /  0mm 389 W/m2
11:40 60.8 °F /  16 °C 48.1 °F /  8.9 °C 30.03in /  1016.8hPa SW 5mph /  8km/h 8mph /  12.9km/h 63% 0.00in /  0mm 386 W/m2
11:50 61.2 °F /  16.2 °C 48.5 °F /  9.2 °C 30.03in /  1016.8hPa SW 5mph /  8km/h 7mph /  11.3km/h 63% 0.00in /  0mm 382 W/m2
12:00 61.9 °F /  16.6 °C 48.7 °F /  9.3 °C 30.02in /  1016.5hPa SW 6mph /  9.7km/h 9mph /  14.5km/h 62% 0.00in /  0mm 376 W/m2
12:10 62.2 °F /  16.8 °C 48.2 °F /  9 °C 30.02in /  1016.5hPa SW 6mph /  9.7km/h 9mph /  14.5km/h 60% 0.00in /  0mm 368 W/m2
12:20 62.8 °F /  17.1 °C 48.2 °F /  9 °C 30.01in /  1016.1hPa SW 6mph /  9.7km/h 8mph /  12.9km/h 59% 0.00in /  0mm 327 W/m2
12:30 63.2 °F /  17.3 °C 48.2 °F /  9 °C 30.01in /  1016.1hPa SW 6mph /  9.7km/h 10mph /  16.1km/h 58% 0.00in /  0mm 350 W/m2
12:40 63.7 °F /  17.6 °C 48.6 °F /  9.2 °C 30.00in /  1015.8hPa SW 6mph /  9.7km/h 12mph /  19.3km/h 58% 0.00in /  0mm 338 W/m2
12:50 63.5 °F /  17.5 °C 48 °F /  8.9 °C 30.00in /  1015.8hPa SW 5mph /  8km/h 12mph /  19.3km/h 57% 0.00in /  0mm 326 W/m2
13:00 63.7 °F /  17.6 °C 48.2 °F /  9 °C 30.00in /  1015.8hPa SW 6mph /  9.7km/h 10mph /  16.1km/h 57% 0.00in /  0mm 312 W/m2
13:10 63.9 °F /  17.7 °C 47.4 °F /  8.6 °C 29.99in /  1015.5hPa SW 7mph /  11.3km/h 12mph /  19.3km/h 55% 0.00in /  0mm 297 W/m2
13:20 64 °F /  17.8 °C 47.5 °F /  8.6 °C 29.99in /  1015.5hPa SW 7mph /  11.3km/h 11mph /  17.7km/h 55% 0.00in /  0mm 281 W/m2
13:30 64.2 °F /  17.9 °C 47.2 °F /  8.4 °C 29.99in /  1015.5hPa SW 7mph /  11.3km/h 10mph /  16.1km/h 54% 0.00in /  0mm 264 W/m2
13:40 64 °F /  17.8 °C 47.1 °F /  8.4 °C 29.99in /  1015.5hPa SW 7mph /  11.3km/h 12mph /  19.3km/h 54% 0.00in /  0mm 246 W/m2
13:50 64 °F /  17.8 °C 47.1 °F /  8.4 °C 29.98in /  1015.1hPa SW 7mph /  11.3km/h 12mph /  19.3km/h 54% 0.00in /  0mm 227 W/m2
14:00 64 °F /  17.8 °C 47.1 °F /  8.4 °C 29.98in /  1015.1hPa SW 7mph /  11.3km/h 12mph /  19.3km/h 54% 0.00in /  0mm 207 W/m2
14:10 63.9 °F /  17.7 °C 47 °F /  8.3 °C 29.98in /  1015.1hPa SW 7mph /  11.3km/h 11mph /  17.7km/h 54% 0.00in /  0mm 187 W/m2
14:20 64 °F /  17.8 °C 47.1 °F /  8.4 °C 29.98in /  1015.1hPa SW 6mph /  9.7km/h 9mph /  14.5km/h 54% 0.00in /  0mm 166 W/m2
14:30 63.9 °F /  17.7 °C 46.9 °F /  8.3 °C 29.97in /  1014.8hPa SW 6mph /  9.7km/h 10mph /  16.1km/h 54% 0.00in /  0mm 145 W/m2
14:40 63.7 °F /  17.6 °C 46.7 °F /  8.2 °C 29.97in /  1014.8hPa SW 6mph /  9.7km/h 9mph /  14.5km/h 54% 0.00in /  0mm 124 W/m2
14:50 63.7 °F /  17.6 °C 46.7 °F /  8.2 °C 29.97in /  1014.8hPa SW 5mph /  8km/h 8mph /  12.9km/h 54% 0.00in /  0mm 103 W/m2
15:00 63.3 °F /  17.4 °C 46.4 °F /  8 °C 29.97in /  1014.8hPa SW 5mph /  8km/h 8mph /  12.9km/h 54% 0.00in /  0mm 83 W/m2
15:10 63.1 °F /  17.3 °C 46.7 °F /  8.2 °C 29.97in /  1014.8hPa SW 5mph /  8km/h 8mph /  12.9km/h 55% 0.00in /  0mm 63 W/m2
15:20 63 °F /  17.2 °C 46.5 °F /  8.1 °C 29.97in /  1014.8hPa SW 5mph /  8km/h 7mph /  11.3km/h 55% 0.00in /  0mm 44 W/m2
15:30 62.6 °F /  17 °C 46.2 °F /  7.9 °C 29.97in /  1014.8hPa SW 3mph /  4.8km/h 6mph /  9.7km/h 55% 0.00in /  0mm 26 W/m2
15:40 62.1 °F /  16.7 °C 46.6 °F /  8.1 °C 29.97in /  1014.8hPa SW 2mph /  3.2km/h 7mph /  11.3km/h 57% 0.00in /  0mm 10 W/m2
15:50 61.3 °F /  16.3 °C 45.9 °F /  7.7 °C 29.97in /  1014.8hPa South 2mph /  3.2km/h 6mph /  9.7km/h 57% 0.00in /  0mm 12 W/m2
16:00 59.8 °F /  15.4 °C 45 °F /  7.2 °C 29.97in /  1014.8hPa SSE 2mph /  3.2km/h 5mph /  8km/h 58% 0.00in /  0mm 6 W/m2
16:10 58.6 °F /  14.8 °C 44.3 °F /  6.8 °C 29.97in /  1014.8hPa SSE 1mph /  1.6km/h 4mph /  6.4km/h 59% 0.00in /  0mm 0 W/m2
16:20 57.6 °F /  14.2 °C 43.8 °F /  6.6 °C 29.97in /  1014.8hPa South 2mph /  3.2km/h 4mph /  6.4km/h 60% 0.00in /  0mm 0 W/m2
16:30 56.6 °F /  13.7 °C 43.7 °F /  6.5 °C 29.97in /  1014.8hPa SSW 1mph /  1.6km/h 5mph /  8km/h 62% 0.00in /  0mm 0 W/m2
16:40 55.5 °F /  13.1 °C 43.1 °F /  6.2 °C 29.97in /  1014.8hPa SW 2mph /  3.2km/h 5mph /  8km/h 63% 0.00in /  0mm 0 W/m2
16:50 54.9 °F /  12.7 °C 42.5 °F /  5.8 °C 29.97in /  1014.8hPa SW 1mph /  1.6km/h 4mph /  6.4km/h 63% 0.00in /  0mm 0 W/m2
17:00 53.9 °F /  12.2 °C 42 °F /  5.6 °C 29.97in /  1014.8hPa South 1mph /  1.6km/h 5mph /  8km/h 64% 0.00in /  0mm 0 W/m2
17:10 53.1 °F /  11.7 °C 41.6 °F /  5.3 °C 29.97in /  1014.8hPa SW 1mph /  1.6km/h 3mph /  4.8km/h 65% 0.00in /  0mm 0 W/m2
17:20 52.3 °F /  11.3 °C 41.7 °F /  5.4 °C 29.97in /  1014.8hPa South 2mph /  3.2km/h 6mph /  9.7km/h 67% 0.00in /  0mm 0 W/m2
17:30 51.6 °F /  10.9 °C 41.4 °F /  5.2 °C 29.98in /  1015.1hPa SSW 1mph /  1.6km/h 5mph /  8km/h 68% 0.00in /  0mm 0 W/m2
17:40 51.3 °F /  10.7 °C 41.1 °F /  5.1 °C 29.98in /  1015.1hPa South 2mph /  3.2km/h 5mph /  8km/h 68% 0.00in /  0mm 0 W/m2
17:50 50.5 °F /  10.3 °C 40.7 °F /  4.8 °C 29.98in /  1015.1hPa SSW 2mph /  3.2km/h 5mph /  8km/h 69% 0.00in /  0mm 0 W/m2
18:00 50 °F /  10 °C 40.2 °F /  4.6 °C 29.97in /  1014.8hPa Calm   4mph /  6.4km/h 69% 0.00in /  0mm 0 W/m2
18:10 49.6 °F /  9.8 °C 40.3 °F /  4.6 °C 29.98in /  1015.1hPa East 1mph /  1.6km/h 5mph /  8km/h 70% 0.00in /  0mm 0 W/m2
18:20 49.4 °F /  9.7 °C 40 °F /  4.4 °C 29.98in /  1015.1hPa South 1mph /  1.6km/h 5mph /  8km/h 70% 0.00in /  0mm 0 W/m2
18:30 49 °F /  9.4 °C 40.4 °F /  4.7 °C 29.98in /  1015.1hPa SSE 1mph /  1.6km/h 3mph /  4.8km/h 72% 0.00in /  0mm 0 W/m2
18:40 48.6 °F /  9.2 °C 39.9 °F /  4.4 °C 29.98in /  1015.1hPa Calm   3mph /  4.8km/h 72% 0.00in /  0mm 0 W/m2
18:50 48.1 °F /  8.9 °C 39.9 °F /  4.4 °C 29.98in /  1015.1hPa Calm   2mph /  3.2km/h 73% 0.00in /  0mm 0 W/m2
19:00 47.8 °F /  8.8 °C 39.6 °F /  4.2 °C 29.98in /  1015.1hPa East 1mph /  1.6km/h 2mph /  3.2km/h 73% 0.00in /  0mm 0 W/m2
19:10 47.5 °F /  8.6 °C 39.6 °F /  4.2 °C 29.98in /  1015.1hPa Calm   3mph /  4.8km/h 74% 0.00in /  0mm 0 W/m2
19:20 46.9 °F /  8.3 °C 39.1 °F /  3.9 °C 29.98in /  1015.1hPa WNW 1mph /  1.6km/h 2mph /  3.2km/h 74% 0.00in /  0mm 0 W/m2
19:30 46.7 °F /  8.2 °C 39.2 °F /  4 °C 29.98in /  1015.1hPa North 2mph /  3.2km/h 3mph /  4.8km/h 75% 0.00in /  0mm 0 W/m2
19:40 46.3 °F /  7.9 °C 39.5 °F /  4.2 °C 29.99in /  1015.5hPa NW 1mph /  1.6km/h 3mph /  4.8km/h 77% 0.00in /  0mm 0 W/m2
19:50 46 °F /  7.8 °C 39.2 °F /  4 °C 29.99in /  1015.5hPa Calm   2mph /  3.2km/h 77% 0.00in /  0mm 0 W/m2
20:00 45.8 °F /  7.7 °C 39 °F /  3.9 °C 29.99in /  1015.5hPa Calm   3mph /  4.8km/h 77% 0.00in /  0mm 0 W/m2
20:10 45.1 °F /  7.3 °C 38.7 °F /  3.7 °C 29.99in /  1015.5hPa NW 1mph /  1.6km/h 2mph /  3.2km/h 78% 0.00in /  0mm 0 W/m2
20:20 44.9 °F /  7.2 °C 38.7 °F /  3.7 °C 29.99in /  1015.5hPa West 1mph /  1.6km/h 4mph /  6.4km/h 79% 0.00in /  0mm 0 W/m2
20:30 44.6 °F /  7 °C 38.2 °F /  3.4 °C 29.99in /  1015.5hPa West 2mph /  3.2km/h 6mph /  9.7km/h 78% 0.00in /  0mm 0 W/m2
20:40 44.2 °F /  6.8 °C 38.1 °F /  3.4 °C 29.99in /  1015.5hPa Calm   3mph /  4.8km/h 79% 0.00in /  0mm 0 W/m2
20:50 43.7 °F /  6.5 °C 37.6 °F /  3.1 °C 29.99in /  1015.5hPa NW 1mph /  1.6km/h 4mph /  6.4km/h 79% 0.00in /  0mm 0 W/m2
21:00 43.3 °F /  6.3 °C 37.6 °F /  3.1 °C 29.99in /  1015.5hPa Calm   3mph /  4.8km/h 80% 0.00in /  0mm 0 W/m2
21:10 42.6 °F /  5.9 °C 36.6 °F /  2.6 °C 29.99in /  1015.5hPa Calm   2mph /  3.2km/h 79% 0.00in /  0mm 0 W/m2
21:20 42.1 °F /  5.6 °C 36.4 °F /  2.4 °C 29.99in /  1015.5hPa NW 1mph /  1.6km/h 3mph /  4.8km/h 80% 0.00in /  0mm 0 W/m2
21:30 41.8 °F /  5.4 °C 36.4 °F /  2.4 °C 29.99in /  1015.5hPa NW 1mph /  1.6km/h 4mph /  6.4km/h 81% 0.00in /  0mm 0 W/m2
21:40 41.8 °F /  5.4 °C 37 °F /  2.8 °C 29.99in /  1015.5hPa West 1mph /  1.6km/h 3mph /  4.8km/h 83% 0.00in /  0mm 0 W/m2
Knjazevac, Serbia
Compliments of Weather Underground - 2 mb